KASX/ASX METAR and TAF weather

Enter ICAO airport designator
Station Type Date Time Source
KASX METAR 2019/05/26 22:53 UTC NOAA

KASX 262253Z AUTO 02013KT 10SM FEW075 11/06 A3010 RMK AO2 SLP200 T01060061


Station Type Date Time Source
KASX Decoded METAR 2019/05/26 22:53 UTC NOAA

ASHLAND KENNEDY MEMORIAL, WI, United States (KASX) 46-33N 090-55W 251M
May 26, 2019 - 06:53 PM EDT / 2019.05.26 2253 UTC
Wind: from the NNE (020 degrees) at 15 MPH (13 KT):0
Visibility: 10 mile(s):0
Sky conditions: mostly clear
Temperature: 51.1 F (10.6 C)
Dew Point: 43.0 F (6.1 C)
Relative Humidity: 73%
Pressure (altimeter): 30.1 in. Hg (1019 hPa)
ob: KASX 262253Z AUTO 02013KT 10SM FEW075 11/06 A3010 RMK AO2 SLP200 T01060061
cycle: 23

Station Type Date Time Source
KASX TAF UTC NOAA

Error!

Example: see airport list